createdAt,value
2018-03-08T00:00:47.041Z,80.92
2018-03-08T00:01:47.042Z,81.45
2018-03-08T00:02:47.056Z,81.37
2018-03-08T00:03:47.061Z,80.87
2018-03-08T00:04:47.057Z,80.99
2018-03-08T00:05:47.052Z,80.35
2018-03-08T00:06:47.072Z,81.05
2018-03-08T00:07:47.054Z,81.12
2018-03-08T00:08:47.078Z,80.56
2018-03-08T00:09:47.070Z,80.64
2018-03-08T00:10:47.070Z,80.47
2018-03-08T00:11:47.064Z,81.08
2018-03-08T00:12:47.064Z,80.44
2018-03-08T00:13:47.066Z,80.54
2018-03-08T00:14:47.063Z,80.67
2018-03-08T00:15:47.068Z,80.46
2018-03-08T00:16:47.073Z,80.37
2018-03-08T00:17:47.228Z,80.5
2018-03-08T00:18:47.084Z,80.13
2018-03-08T00:19:47.086Z,81
2018-03-08T00:20:47.092Z,80.39
2018-03-08T00:21:47.095Z,80.38
2018-03-08T00:22:47.134Z,80.65
2018-03-08T00:23:47.104Z,80.89
2018-03-08T00:24:47.131Z,80.64
2018-03-08T00:25:47.109Z,80.94
2018-03-08T00:26:47.110Z,80.87
2018-03-08T00:27:47.113Z,80.87
2018-03-08T00:28:47.139Z,81.31
2018-03-08T00:29:47.118Z,81.03
2018-03-08T00:30:47.127Z,81.12
2018-03-08T00:31:47.129Z,80.9
2018-03-08T00:32:47.290Z,80.66
2018-03-08T00:33:47.407Z,80.88
2018-03-08T00:34:47.152Z,80.48
2018-03-08T00:35:47.154Z,80.55
2018-03-08T00:36:47.156Z,80.9
2018-03-08T00:37:47.157Z,80.51
2018-03-08T00:38:47.180Z,80.41
2018-03-08T00:39:47.173Z,80.84
2018-03-08T00:40:47.169Z,80.71
2018-03-08T00:41:47.185Z,81.12
2018-03-08T00:42:47.164Z,81.01
2018-03-08T00:43:47.211Z,81.25
2018-03-08T00:44:47.201Z,80.77
2018-03-08T00:45:47.442Z,81.34
2018-03-08T00:46:47.172Z,80.89
2018-03-08T00:47:47.174Z,81.22
2018-03-08T00:48:47.222Z,81.22
2018-03-08T00:49:47.180Z,81.06
2018-03-08T00:50:47.207Z,80.9
2018-03-08T00:51:47.184Z,81.12
2018-03-08T00:52:47.221Z,81.26
2018-03-08T00:53:47.196Z,81.15
2018-03-08T00:54:47.198Z,81.28
2018-03-08T00:55:47.196Z,81.66
2018-03-08T00:56:47.218Z,81.68
2018-03-08T00:57:47.191Z,81.42
2018-03-08T00:58:47.194Z,81.13
2018-03-08T00:59:47.199Z,81.87
2018-03-08T01:00:47.198Z,81.91
2018-03-08T01:01:47.215Z,81.85
2018-03-08T01:02:47.394Z,81.63
2018-03-08T01:03:47.223Z,81.38
2018-03-08T01:04:47.211Z,81.69
2018-03-08T01:05:47.215Z,81.98
2018-03-08T01:06:47.321Z,81.44
2018-03-08T01:07:47.227Z,81.62
2018-03-08T01:08:47.222Z,81.51
2018-03-08T01:09:47.232Z,81.46
2018-03-08T01:10:47.236Z,81.93
2018-03-08T01:11:47.237Z,81.87
2018-03-08T01:12:48.485Z,81.42
2018-03-08T01:13:47.238Z,81.37
2018-03-08T01:14:47.243Z,81.94
2018-03-08T01:15:47.243Z,81.92
2018-03-08T01:16:47.255Z,81.42
2018-03-08T01:17:47.286Z,81.7
2018-03-08T01:18:47.262Z,81.78
2018-03-08T01:19:47.257Z,81.81
2018-03-08T01:20:47.261Z,82.05
2018-03-08T01:21:47.269Z,82.03
2018-03-08T01:22:47.292Z,81.93
2018-03-08T01:23:47.272Z,82.12
2018-03-08T01:24:47.293Z,81.7
2018-03-08T01:25:47.276Z,82.11
2018-03-08T01:26:47.278Z,82.1
2018-03-08T01:27:47.280Z,82.26
2018-03-08T01:28:47.296Z,82.08
2018-03-08T01:29:47.301Z,82.15
2018-03-08T01:30:47.307Z,82.37
2018-03-08T01:32:47.333Z,82.62
2018-03-08T01:33:47.311Z,81.54
2018-03-08T01:34:47.336Z,81.98
2018-03-08T01:35:48.333Z,82.12
2018-03-08T01:36:47.326Z,82.55
2018-03-08T01:37:47.338Z,81.98
2018-03-08T01:38:47.628Z,82.28
2018-03-08T01:39:47.418Z,82.27
2018-03-08T01:40:47.354Z,82.38
2018-03-08T01:41:47.360Z,82.67
2018-03-08T01:42:47.361Z,82.26
2018-03-08T01:43:47.493Z,82.26
2018-03-08T01:44:47.372Z,82.55
2018-03-08T01:45:47.377Z,82.3
2018-03-08T01:46:47.381Z,81.91
2018-03-08T01:47:47.393Z,82.31
2018-03-08T01:48:47.414Z,81.85
2018-03-08T01:49:47.402Z,82.21
2018-03-08T01:50:47.402Z,82.12
2018-03-08T01:51:47.416Z,82.45
2018-03-08T01:52:47.414Z,82.11
2018-03-08T01:53:47.420Z,82.08
2018-03-08T01:54:47.421Z,82.26
2018-03-08T01:55:47.430Z,82.68
2018-03-08T01:56:47.433Z,82.25
2018-03-08T01:57:47.437Z,82.05
2018-03-08T01:58:47.440Z,82.56
2018-03-08T01:59:47.444Z,82.03
2018-03-08T02:00:47.444Z,81.81
2018-03-08T02:01:47.456Z,82.06
2018-03-08T02:02:47.448Z,82.33
2018-03-08T02:03:47.448Z,82.47
2018-03-08T02:04:47.476Z,82.3
2018-03-08T02:05:47.460Z,82.8
2018-03-08T02:06:47.453Z,82.3
2018-03-08T02:07:47.467Z,82.33
2018-03-08T02:08:47.467Z,82.77
2018-03-08T02:09:47.482Z,82.13
2018-03-08T02:10:47.468Z,82.29
2018-03-08T02:11:47.470Z,82.55
2018-03-08T02:12:47.470Z,82.66
2018-03-08T02:13:47.471Z,82.2
2018-03-08T02:14:47.786Z,82.53
2018-03-08T02:15:47.480Z,82.18
2018-03-08T02:16:47.486Z,82.6
2018-03-08T02:17:47.485Z,82.57
2018-03-08T02:18:47.495Z,82.64
2018-03-08T02:19:47.513Z,82.13
2018-03-08T02:20:47.501Z,82.13
2018-03-08T02:21:47.503Z,82.06
2018-03-08T02:22:47.536Z,82.65
2018-03-08T02:23:47.505Z,82.18
2018-03-08T02:24:47.729Z,82.21
2018-03-08T02:25:47.510Z,82.27
2018-03-08T02:26:47.518Z,82.02
2018-03-08T02:27:47.522Z,82.14
2018-03-08T02:28:47.531Z,82.38
2018-03-08T02:29:47.552Z,82.51
2018-03-08T02:30:47.535Z,82.44
2018-03-08T02:31:47.528Z,82.63
2018-03-08T02:32:47.533Z,81.9
2018-03-08T02:33:47.536Z,82.32
2018-03-08T02:34:47.536Z,82.45
2018-03-08T02:35:47.548Z,82.44
2018-03-08T02:36:47.542Z,82.05
2018-03-08T02:37:47.543Z,82.28
2018-03-08T02:38:47.545Z,81.82
2018-03-08T02:39:47.548Z,81.8
2018-03-08T02:40:47.555Z,82.7
2018-03-08T02:41:47.578Z,82.43
2018-03-08T02:42:47.558Z,82.33
2018-03-08T02:43:47.560Z,82.01
2018-03-08T02:44:47.562Z,82.49
2018-03-08T02:45:47.567Z,82.66
2018-03-08T02:46:47.597Z,82.41
2018-03-08T02:47:47.625Z,82.36
2018-03-08T02:48:47.583Z,82.1
2018-03-08T02:49:47.585Z,82.01
2018-03-08T02:50:47.634Z,82.58
2018-03-08T02:51:47.618Z,82.07
2018-03-08T02:52:47.608Z,82.52
2018-03-08T02:53:47.688Z,82.35
2018-03-08T02:54:47.653Z,82.4
2018-03-08T02:55:47.614Z,82.51
2018-03-08T02:56:47.616Z,82.23
2018-03-08T02:57:47.666Z,82.03
2018-03-08T02:58:47.625Z,82.38
2018-03-08T02:59:47.654Z,82.27
2018-03-08T03:00:47.622Z,82.72
2018-03-08T03:01:47.633Z,82.49
2018-03-08T03:02:47.631Z,82.62
2018-03-08T03:03:47.635Z,82.24
2018-03-08T03:04:47.663Z,82.65
2018-03-08T03:05:47.639Z,82.81
2018-03-08T03:06:47.639Z,82.73
2018-03-08T03:07:47.645Z,82.52
2018-03-08T03:08:47.657Z,82.63
2018-03-08T03:09:47.685Z,82.53
2018-03-08T03:10:47.682Z,82.33
2018-03-08T03:11:47.656Z,82.9
2018-03-08T03:12:47.655Z,82.38
2018-03-08T03:13:47.661Z,82.26
2018-03-08T03:14:47.667Z,82.27
2018-03-08T03:15:47.936Z,82.08
2018-03-08T03:16:47.676Z,83.19
2018-03-08T03:17:47.682Z,82.78
2018-03-08T03:18:47.692Z,82.81
2018-03-08T03:19:47.695Z,82.61
2018-03-08T03:20:47.735Z,82.79
2018-03-08T03:21:47.694Z,82.74
2018-03-08T03:22:47.706Z,82.63
2018-03-08T03:23:47.700Z,83.01
2018-03-08T03:24:47.700Z,83.13
2018-03-08T03:25:47.733Z,83.41
2018-03-08T03:26:47.708Z,83.24
2018-03-08T03:27:47.700Z,83.53
2018-03-08T03:28:47.704Z,83.26
2018-03-08T03:29:47.711Z,83.34
2018-03-08T03:30:47.731Z,83.21
2018-03-08T03:31:47.719Z,83.39
2018-03-08T03:32:47.731Z,83.44
2018-03-08T03:33:47.735Z,83.06
2018-03-08T03:34:47.721Z,83.13
2018-03-08T03:35:47.738Z,83.53
2018-03-08T03:36:47.741Z,83.64
2018-03-08T03:37:47.748Z,83.05
2018-03-08T03:38:47.742Z,83.43
2018-03-08T03:39:47.746Z,83.26
2018-03-08T03:40:47.745Z,83.29
2018-03-08T03:41:48.022Z,82.96
2018-03-08T03:42:47.749Z,83.48
2018-03-08T03:43:47.751Z,83.99
2018-03-08T03:44:47.753Z,83.45
2018-03-08T03:45:47.764Z,83.4
2018-03-08T03:46:47.792Z,83.83
2018-03-08T03:47:47.771Z,83.9
2018-03-08T03:48:47.776Z,83.6
2018-03-08T03:49:47.776Z,84.17
2018-03-08T03:50:47.775Z,83.69
2018-03-08T03:51:47.800Z,84.54
2018-03-08T03:52:47.786Z,84.38
2018-03-08T03:53:47.789Z,84.12
2018-03-08T03:54:47.788Z,84.36
2018-03-08T03:55:47.789Z,84.02
2018-03-08T03:56:47.785Z,83.85
2018-03-08T03:57:47.789Z,84.54
2018-03-08T03:58:47.801Z,84.15
2018-03-08T03:59:47.804Z,83.95
2018-03-08T04:00:47.821Z,83.62
2018-03-08T04:01:47.813Z,83.96
2018-03-08T04:02:47.806Z,84.19
2018-03-08T04:03:47.814Z,84.26
2018-03-08T04:04:47.808Z,84.4
2018-03-08T04:05:47.816Z,84.39
2018-03-08T04:06:47.821Z,84.32
2018-03-08T04:07:47.831Z,84.34
2018-03-08T04:08:47.822Z,84.55
2018-03-08T04:09:47.855Z,84.33
2018-03-08T04:10:47.837Z,84.37
2018-03-08T04:11:47.829Z,84.74
2018-03-08T04:12:47.837Z,84.5
2018-03-08T04:13:47.837Z,84.51
2018-03-08T04:14:47.860Z,84.08
2018-03-08T04:15:47.846Z,84.4
2018-03-08T04:16:47.852Z,84.47
2018-03-08T04:17:47.886Z,84.21
2018-03-08T04:18:47.873Z,84.43
2018-03-08T04:19:47.868Z,83.96
2018-03-08T04:20:47.880Z,84.45
2018-03-08T04:21:47.867Z,84.36
2018-03-08T04:22:47.893Z,84.69
2018-03-08T04:23:47.885Z,84.65
2018-03-08T04:24:47.879Z,84.71
2018-03-08T04:25:47.911Z,85.19
2018-03-08T04:26:47.894Z,85.16
2018-03-08T04:27:47.896Z,85.07
2018-03-08T04:28:47.910Z,84.75
2018-03-08T04:29:47.906Z,84.84
2018-03-08T04:30:47.902Z,85.02
2018-03-08T04:31:48.164Z,85.05
2018-03-08T04:32:47.909Z,84.76
2018-03-08T04:33:47.917Z,85.06
2018-03-08T04:34:47.919Z,85.38
2018-03-08T04:35:47.924Z,85.18
2018-03-08T04:36:47.941Z,85.23
2018-03-08T04:37:47.923Z,84.88
2018-03-08T04:38:47.920Z,85.48
2018-03-08T04:39:47.927Z,85.3
2018-03-08T04:40:47.925Z,85.2
2018-03-08T04:41:47.933Z,84.95
2018-03-08T04:42:47.958Z,85.26
2018-03-08T04:43:47.964Z,85.26
2018-03-08T04:44:47.938Z,85.22
2018-03-08T04:45:47.939Z,85.64
2018-03-08T04:46:47.953Z,85.49
2018-03-08T04:47:47.963Z,85.56
2018-03-08T04:48:47.950Z,85.19
2018-03-08T04:49:47.955Z,85.05
2018-03-08T04:50:47.947Z,85.4
2018-03-08T04:51:47.951Z,85.46
2018-03-08T04:52:47.950Z,85.5
2018-03-08T04:53:47.951Z,85.21
2018-03-08T04:54:47.953Z,85.59
2018-03-08T04:55:47.955Z,85.56
2018-03-08T04:56:47.958Z,84.95
2018-03-08T04:57:47.966Z,85.2
2018-03-08T04:58:48.000Z,85
2018-03-08T04:59:47.970Z,85.08
2018-03-08T05:00:47.974Z,85.28
2018-03-08T05:01:47.984Z,85.21
2018-03-08T05:02:47.982Z,85.19
2018-03-08T05:03:48.022Z,85.53
2018-03-08T05:04:47.994Z,85.55
2018-03-08T05:05:47.994Z,85.23
2018-03-08T05:06:48.011Z,85.33
2018-03-08T05:07:47.997Z,85
2018-03-08T05:08:48.031Z,84.89
2018-03-08T05:09:48.002Z,84.74
2018-03-08T05:10:48.015Z,84.76
2018-03-08T05:11:48.024Z,84.94
2018-03-08T05:12:48.030Z,84.97
2018-03-08T05:13:48.287Z,85.11
2018-03-08T05:14:48.074Z,84.69
2018-03-08T05:15:48.041Z,84.71
2018-03-08T05:16:48.050Z,84.64
2018-03-08T05:17:48.040Z,84.35
2018-03-08T05:18:48.065Z,84.76
2018-03-08T05:19:48.049Z,84.68
2018-03-08T05:20:48.037Z,84.26
2018-03-08T05:21:48.039Z,84.68
2018-03-08T05:22:48.041Z,84.36
2018-03-08T05:23:48.081Z,84.49
2018-03-08T05:24:48.045Z,84.05
2018-03-08T05:25:48.045Z,84.46
2018-03-08T05:26:48.050Z,84.79
2018-03-08T05:27:48.051Z,84.45
2018-03-08T05:28:48.061Z,84.62
2018-03-08T05:29:48.058Z,84.09
2018-03-08T05:30:48.056Z,84.3
2018-03-08T05:31:48.058Z,84.72
2018-03-08T05:32:48.072Z,84.35
2018-03-08T05:33:48.071Z,84.36
2018-03-08T05:34:48.359Z,84.77
2018-03-08T05:35:48.091Z,84.45
2018-03-08T05:36:48.094Z,84.14
2018-03-08T05:37:48.091Z,84.14
2018-03-08T05:38:48.091Z,84.34
2018-03-08T05:39:48.124Z,84.42
2018-03-08T05:40:48.097Z,84.6
2018-03-08T05:41:48.097Z,85
2018-03-08T05:42:48.107Z,84.86
2018-03-08T05:43:48.113Z,84.89
2018-03-08T05:44:48.136Z,84.96
2018-03-08T05:45:48.116Z,84.72
2018-03-08T05:46:48.122Z,84.67
2018-03-08T05:47:48.126Z,85.32
2018-03-08T05:48:48.116Z,85.43
2018-03-08T05:49:48.128Z,85.47
2018-03-08T05:50:48.143Z,85.62
2018-03-08T05:51:48.123Z,85.54
2018-03-08T05:52:48.132Z,85.54
2018-03-08T05:53:48.126Z,85.51
2018-03-08T05:54:48.121Z,85.26
2018-03-08T05:55:48.149Z,85.31
2018-03-08T05:56:48.128Z,85.29
2018-03-08T05:57:48.129Z,85.56
2018-03-08T05:58:48.141Z,86.2
2018-03-08T05:59:48.134Z,86.24
2018-03-08T06:00:48.233Z,86.75
2018-03-08T06:01:48.137Z,86.84
2018-03-08T06:02:48.147Z,86.9
2018-03-08T06:03:48.148Z,86.98
2018-03-08T06:04:48.147Z,86.99
2018-03-08T06:05:48.148Z,87.01
2018-03-08T06:06:48.151Z,87.05
2018-03-08T06:07:48.156Z,87.19
2018-03-08T06:08:48.160Z,87.16
2018-03-08T06:09:48.165Z,87.51
2018-03-08T06:10:48.174Z,87.42
2018-03-08T06:11:48.166Z,87.67
2018-03-08T06:12:48.196Z,87.47
2018-03-08T06:13:48.179Z,87.75
2018-03-08T06:14:48.188Z,87.59
2018-03-08T06:15:48.205Z,87.95
2018-03-08T06:16:48.202Z,88.04
2018-03-08T06:17:48.185Z,87.45
2018-03-08T06:18:48.188Z,86.66
2018-03-08T06:19:48.196Z,86.87
2018-03-08T06:20:48.196Z,87.67
2018-03-08T06:21:48.217Z,87.78
2018-03-08T06:22:48.193Z,87.57
2018-03-08T06:23:48.203Z,87.28
2018-03-08T06:24:48.206Z,86.88
2018-03-08T06:25:48.216Z,87.6
2018-03-08T06:26:48.232Z,87.33
2018-03-08T06:27:48.210Z,87.94
2018-03-08T06:28:48.220Z,87.82
2018-03-08T06:29:48.223Z,87.25
2018-03-08T06:30:48.231Z,86.85
2018-03-08T06:31:48.287Z,86.93
2018-03-08T06:32:48.242Z,86.81
2018-03-08T06:33:48.246Z,87.41
2018-03-08T06:34:48.241Z,87.02
2018-03-08T06:35:48.260Z,87.22
2018-03-08T06:36:48.249Z,87.4
2018-03-08T06:37:48.256Z,86.85
2018-03-08T06:38:48.259Z,86.84
2018-03-08T06:39:48.265Z,87.5
2018-03-08T06:40:48.268Z,86.9
2018-03-08T06:41:48.263Z,86.33
2018-03-08T06:42:48.314Z,86.9
2018-03-08T06:43:48.272Z,86.97
2018-03-08T06:44:48.277Z,87.08
2018-03-08T06:45:48.275Z,87.84
2018-03-08T06:46:48.275Z,87.42
2018-03-08T06:47:48.577Z,87.41
2018-03-08T06:48:48.288Z,87.5
2018-03-08T06:49:48.287Z,87.21
2018-03-08T06:50:48.288Z,87.16
2018-03-08T06:51:48.292Z,86.6
2018-03-08T06:52:48.314Z,87.66
2018-03-08T06:53:48.309Z,87.53
2018-03-08T06:54:48.306Z,87.74
2018-03-08T06:55:48.302Z,87.8
2018-03-08T06:56:48.314Z,87.26
2018-03-08T06:57:48.318Z,87.1
2018-03-08T06:58:48.331Z,86.8
2018-03-08T06:59:48.326Z,86.27
2018-03-08T07:00:48.331Z,86.73
2018-03-08T07:01:48.328Z,86.71
2018-03-08T07:02:48.399Z,86.59
2018-03-08T07:03:48.324Z,86.68
2018-03-08T07:04:48.327Z,86.16
2018-03-08T07:05:48.336Z,86.53
2018-03-08T07:06:48.331Z,86.07
2018-03-08T07:07:48.609Z,86.38
2018-03-08T07:08:48.337Z,85.35
2018-03-08T07:09:48.358Z,86.25
2018-03-08T07:10:48.343Z,85.86
2018-03-08T07:11:48.348Z,86.65
2018-03-08T07:12:48.373Z,86.88
2018-03-08T07:13:48.388Z,87.13
2018-03-08T07:14:48.353Z,86.42
2018-03-08T07:15:48.400Z,86.49
2018-03-08T07:16:48.359Z,85.61
2018-03-08T07:17:48.380Z,85.55
2018-03-08T07:18:48.378Z,86.38
2018-03-08T07:19:48.384Z,86.48
2018-03-08T07:20:48.383Z,86.18
2018-03-08T07:21:48.376Z,86.3
2018-03-08T07:22:48.380Z,85.79
2018-03-08T07:23:48.434Z,86.33
2018-03-08T07:24:48.387Z,85.94
2018-03-08T07:25:48.397Z,86.69
2018-03-08T07:26:48.420Z,86.62
2018-03-08T07:27:48.400Z,86.85
2018-03-08T07:28:48.410Z,87.36
2018-03-08T07:29:48.419Z,87.23
2018-03-08T07:30:48.410Z,86.48
2018-03-08T07:31:48.680Z,86.9
2018-03-08T07:32:48.422Z,86.12
2018-03-08T07:33:48.439Z,86.04
2018-03-08T07:34:48.428Z,86.47
2018-03-08T07:35:48.441Z,86.46
2018-03-08T07:36:48.473Z,86.58
2018-03-08T07:37:48.444Z,86.55
2018-03-08T07:38:48.448Z,85.92
2018-03-08T07:39:48.460Z,86.13
2018-03-08T07:40:48.466Z,85.92
2018-03-08T07:41:48.479Z,85.38
2018-03-08T07:42:48.462Z,85.33
2018-03-08T07:43:48.465Z,86.01
2018-03-08T07:44:48.468Z,85.43
2018-03-08T07:45:48.473Z,85.55
2018-03-08T07:46:48.479Z,86.01
2018-03-08T07:47:48.476Z,84.55
2018-03-08T07:48:48.488Z,84.76
2018-03-08T07:49:48.488Z,84.51
2018-03-08T07:50:48.484Z,85.46
2018-03-08T07:51:48.530Z,85.5
2018-03-08T07:52:48.525Z,85.96
2018-03-08T07:53:48.505Z,85.83
2018-03-08T07:54:48.504Z,86.01
2018-03-08T07:55:48.511Z,85.81
2018-03-08T07:56:48.509Z,86.31
2018-03-08T07:57:48.538Z,85.33
2018-03-08T07:58:48.522Z,85.54
2018-03-08T07:59:48.532Z,85.44
2018-03-08T08:00:48.534Z,85.26
2018-03-08T08:01:48.540Z,85.15
2018-03-08T08:02:48.565Z,85.54
2018-03-08T08:03:48.540Z,85.58
2018-03-08T08:04:48.565Z,85.13
2018-03-08T08:05:48.552Z,84.61
2018-03-08T08:06:48.558Z,84.85
2018-03-08T08:07:48.561Z,84.73
2018-03-08T08:08:48.573Z,84.76
2018-03-08T08:09:48.573Z,84.69
2018-03-08T08:10:48.581Z,84.58
2018-03-08T08:11:48.580Z,84.17
2018-03-08T08:12:48.582Z,84.54
2018-03-08T08:13:48.576Z,84.77
2018-03-08T08:14:48.582Z,84.79
2018-03-08T08:15:48.575Z,84.8
2018-03-08T08:16:48.580Z,84.85
2018-03-08T08:17:48.591Z,84.71
2018-03-08T08:18:48.611Z,84.67
2018-03-08T08:19:48.588Z,84.47
2018-03-08T08:20:48.594Z,84.74
2018-03-08T08:21:48.598Z,85.25
2018-03-08T08:22:48.606Z,84.81
2018-03-08T08:23:48.886Z,84.35
2018-03-08T08:24:48.622Z,84.88
2018-03-08T08:25:48.659Z,85.37
2018-03-08T08:26:48.685Z,85.3
2018-03-08T08:27:48.631Z,85.01
2018-03-08T08:28:48.660Z,84.78
2018-03-08T08:29:48.636Z,83.81
2018-03-08T08:30:48.637Z,84.09
2018-03-08T08:31:48.645Z,84.18
2018-03-08T08:32:48.636Z,84.21
2018-03-08T08:33:48.901Z,84.82
2018-03-08T08:34:54.611Z,84.88
2018-03-08T08:35:48.636Z,84.63
2018-03-08T08:36:48.647Z,83.71
2018-03-08T08:37:48.646Z,83.83
2018-03-08T08:38:48.684Z,83.87
2018-03-08T08:39:48.648Z,83.8
2018-03-08T08:40:48.685Z,83.22
2018-03-08T08:41:48.660Z,83.86
2018-03-08T08:42:48.654Z,84.09
2018-03-08T08:43:48.680Z,84.06
2018-03-08T08:44:48.680Z,84.03
2018-03-08T08:45:48.666Z,83.97
2018-03-08T08:46:48.682Z,84.81
2018-03-08T08:47:48.673Z,84.32
2018-03-08T08:48:48.967Z,84.2
2018-03-08T08:49:48.689Z,84.07
2018-03-08T08:50:48.698Z,83.47
2018-03-08T08:51:48.704Z,83.22
2018-03-08T08:52:48.702Z,82.35
2018-03-08T08:53:48.717Z,82.95
2018-03-08T08:54:48.707Z,82.34
2018-03-08T08:55:48.708Z,82.01
2018-03-08T08:56:48.720Z,82.17
2018-03-08T08:57:48.720Z,82.66
2018-03-08T08:58:48.732Z,82.24
2018-03-08T08:59:48.710Z,81.71
2018-03-08T09:00:48.739Z,82.12
2018-03-08T09:01:48.723Z,83.01
2018-03-08T09:02:48.729Z,82.36
2018-03-08T09:03:48.734Z,82.8
2018-03-08T09:04:48.748Z,82.82
2018-03-08T09:05:48.746Z,82.55
2018-03-08T09:06:48.743Z,82.6
2018-03-08T09:07:48.750Z,82.9
2018-03-08T09:08:48.748Z,82.69
2018-03-08T09:09:48.760Z,82.33
2018-03-08T09:10:48.759Z,81.95
2018-03-08T09:11:48.751Z,82.19
2018-03-08T09:12:48.762Z,81.19
2018-03-08T09:13:48.784Z,81.27
2018-03-08T09:14:48.758Z,81.48
2018-03-08T09:15:48.759Z,81.13
2018-03-08T09:16:48.766Z,81.03
2018-03-08T09:17:48.778Z,81.23
2018-03-08T09:18:48.801Z,81.08
2018-03-08T09:19:48.787Z,80.67
2018-03-08T09:20:48.793Z,80.4
2018-03-08T09:21:48.794Z,80.39
2018-03-08T09:22:48.804Z,80.25
2018-03-08T09:23:48.807Z,80.02
2018-03-08T09:24:48.807Z,80.07
2018-03-08T09:25:48.802Z,79.89
2018-03-08T09:26:48.799Z,80.03
2018-03-08T09:27:48.826Z,80.26
2018-03-08T09:28:48.802Z,79.96
2018-03-08T09:29:48.799Z,80.06
2018-03-08T09:30:48.802Z,79.62
2018-03-08T09:31:48.802Z,79.12
2018-03-08T09:32:49.088Z,79.53
2018-03-08T09:33:48.804Z,79.24
2018-03-08T09:34:48.808Z,79.48
2018-03-08T09:35:48.799Z,79.36
2018-03-08T09:36:48.801Z,79.23
2018-03-08T09:37:48.835Z,78.8
2018-03-08T09:38:48.802Z,78.07
2018-03-08T09:39:48.819Z,77.52
2018-03-08T09:40:48.807Z,77.8
2018-03-08T09:41:48.853Z,77.42
2018-03-08T09:42:48.832Z,77.58
2018-03-08T09:43:48.849Z,77.42
2018-03-08T09:44:48.838Z,76.98
2018-03-08T09:45:48.834Z,76.65
2018-03-08T09:46:48.856Z,76.26
2018-03-08T09:47:48.837Z,76.53
2018-03-08T09:48:48.864Z,76.18
2018-03-08T09:49:48.839Z,76.74
2018-03-08T09:50:48.847Z,76.09
2018-03-08T09:51:48.870Z,75.22
2018-03-08T09:52:48.852Z,75.6
2018-03-08T09:53:48.877Z,75.59
2018-03-08T09:54:48.853Z,75.21
2018-03-08T09:55:48.858Z,75.17
2018-03-08T09:56:48.868Z,75
2018-03-08T09:57:48.872Z,75.45
2018-03-08T09:58:48.897Z,75.62
2018-03-08T09:59:48.894Z,74.65
2018-03-08T10:00:48.881Z,74.11
2018-03-08T10:01:48.896Z,73.32
2018-03-08T10:02:48.889Z,73.71
2018-03-08T10:03:48.920Z,72.81
2018-03-08T10:04:48.897Z,73.08
2018-03-08T10:05:48.905Z,73.04
2018-03-08T10:06:48.908Z,72.17
2018-03-08T10:07:48.940Z,71.57
2018-03-08T10:08:48.950Z,71.78
2018-03-08T10:09:48.910Z,71.95
2018-03-08T10:10:48.940Z,72.18
2018-03-08T10:11:48.925Z,71.94
2018-03-08T10:12:48.924Z,71.93
2018-03-08T10:13:48.942Z,72.31
2018-03-08T10:14:48.928Z,71.86
2018-03-08T10:15:48.945Z,71.78
2018-03-08T10:16:48.942Z,70.96
2018-03-08T10:17:48.957Z,70.9
2018-03-08T10:18:48.945Z,70.53
2018-03-08T10:19:48.947Z,70.38
2018-03-08T10:20:48.957Z,69.55
2018-03-08T10:21:48.958Z,69.73
2018-03-08T10:22:48.988Z,70.04
2018-03-08T10:23:48.961Z,70.43
2018-03-08T10:24:48.966Z,70.32
2018-03-08T10:25:48.962Z,70.36
2018-03-08T10:26:48.967Z,70.89
2018-03-08T10:27:48.968Z,70.23
2018-03-08T10:28:48.972Z,70.46
2018-03-08T10:29:48.974Z,69.36
2018-03-08T10:30:48.976Z,68.73
2018-03-08T10:31:48.981Z,68.24
2018-03-08T10:32:48.990Z,67
2018-03-08T10:33:49.029Z,68.14
2018-03-08T10:34:49.022Z,68.1
2018-03-08T10:35:49.006Z,66.14
2018-03-08T10:36:49.004Z,66.59
2018-03-08T10:37:48.998Z,66.36
2018-03-08T10:38:49.025Z,66.94
2018-03-08T10:39:49.005Z,66.9
2018-03-08T10:40:48.997Z,66.69
2018-03-08T10:41:49.004Z,65.82
2018-03-08T10:42:49.006Z,65.86
2018-03-08T10:43:49.038Z,65.39
2018-03-08T10:44:49.020Z,65.57
2018-03-08T10:45:49.023Z,65.5
2018-03-08T10:46:49.019Z,66.03
2018-03-08T10:47:49.031Z,66.27
2018-03-08T10:49:49.036Z,66.27
2018-03-08T10:50:49.037Z,66.23
2018-03-08T10:51:49.038Z,66.18
2018-03-08T10:52:49.044Z,66.53
2018-03-08T10:53:49.064Z,66.59
2018-03-08T10:54:49.069Z,66.03
2018-03-08T10:55:49.076Z,64.52
2018-03-08T10:56:49.061Z,64.72
2018-03-08T10:57:49.069Z,64.91
2018-03-08T10:58:49.062Z,64.96
2018-03-08T10:59:49.061Z,64.7
2018-03-08T11:00:49.699Z,64.23
2018-03-08T11:01:49.056Z,64.14
2018-03-08T11:02:49.064Z,65.13
2018-03-08T11:03:49.073Z,64.14
2018-03-08T11:04:49.076Z,64.51
2018-03-08T11:05:49.077Z,64.62
2018-03-08T11:06:49.092Z,64.62
2018-03-08T11:07:49.090Z,64.23
2018-03-08T11:08:49.109Z,64.01
2018-03-08T11:09:49.102Z,64.67
2018-03-08T11:10:49.099Z,65.05
2018-03-08T11:11:49.102Z,64.87
2018-03-08T11:12:49.108Z,64.36
2018-03-08T11:13:49.102Z,64.4
2018-03-08T11:14:49.118Z,64.56
2018-03-08T11:15:49.127Z,64.23
2018-03-08T11:16:49.117Z,64.85
2018-03-08T11:17:49.111Z,64.39
2018-03-08T11:18:49.121Z,63.66
2018-03-08T11:19:49.144Z,63.87
2018-03-08T11:20:49.128Z,63.83
2018-03-08T11:21:49.123Z,64.28
2018-03-08T11:22:49.133Z,64.1
2018-03-08T11:23:49.155Z,63.85
2018-03-08T11:24:49.138Z,63.91
2018-03-08T11:25:49.140Z,62.86
2018-03-08T11:26:49.150Z,63.12
2018-03-08T11:27:49.152Z,63.18
2018-03-08T11:28:49.162Z,62.98
2018-03-08T11:29:49.145Z,63.33
2018-03-08T11:30:49.139Z,63.94
2018-03-08T11:31:49.140Z,63.43
2018-03-08T11:32:49.148Z,64.05
2018-03-08T11:33:49.177Z,63.9
2018-03-08T11:34:49.160Z,64.38
2018-03-08T11:36:49.167Z,63.71
2018-03-08T11:37:49.196Z,63.81
2018-03-08T11:38:49.175Z,63.66
2018-03-08T11:39:49.186Z,63.73
2018-03-08T11:40:49.182Z,63.76
2018-03-08T11:41:49.190Z,63.64
2018-03-08T11:42:49.198Z,63.9
2018-03-08T11:43:49.194Z,64.12
2018-03-08T11:44:49.492Z,64
2018-03-08T11:45:49.190Z,63.35
2018-03-08T11:46:49.198Z,64.42
2018-03-08T11:47:49.193Z,64.08
2018-03-08T11:48:49.199Z,64
2018-03-08T11:49:49.226Z,64.04
2018-03-08T11:50:49.204Z,63.65
2018-03-08T11:51:49.202Z,64.21
2018-03-08T11:52:49.221Z,64.29
2018-03-08T11:53:49.219Z,64.2
2018-03-08T11:54:49.315Z,63.35
2018-03-08T11:55:49.223Z,63.51
2018-03-08T11:56:49.231Z,63.75
2018-03-08T11:57:49.240Z,63.03
2018-03-08T11:58:49.240Z,61.86
2018-03-08T11:59:49.249Z,61.29
2018-03-08T12:00:49.275Z,61.66
2018-03-08T12:01:49.262Z,61.04
2018-03-08T12:02:49.269Z,61.42
2018-03-08T12:03:49.264Z,61.24
2018-03-08T12:04:49.264Z,60.53
2018-03-08T12:05:49.266Z,58.73
2018-03-08T12:06:49.276Z,58.71
2018-03-08T12:07:49.266Z,59.56
2018-03-08T12:08:49.259Z,58.32
2018-03-08T12:09:49.266Z,59.32
2018-03-08T12:10:49.285Z,58.65
2018-03-08T12:11:49.284Z,58.19
2018-03-08T12:12:49.286Z,57.53
2018-03-08T12:13:49.286Z,59.42
2018-03-08T12:14:49.286Z,58.7
2018-03-08T12:15:49.290Z,58.97
2018-03-08T12:16:49.357Z,57.17
2018-03-08T12:17:49.336Z,57.33
2018-03-08T12:18:49.304Z,57.61
2018-03-08T12:19:49.456Z,58.96
2018-03-08T12:20:49.304Z,58.62
2018-03-08T12:21:49.309Z,57.84
2018-03-08T12:22:49.391Z,57.89
2018-03-08T12:23:49.308Z,57.37
2018-03-08T12:24:49.332Z,58.75
2018-03-08T12:25:49.319Z,58.36
2018-03-08T12:26:49.317Z,57.73
2018-03-08T12:27:49.324Z,57.58
2018-03-08T12:28:49.331Z,56.6
2018-03-08T12:29:49.686Z,57.72
2018-03-08T12:30:49.332Z,58.15
2018-03-08T12:31:49.343Z,57.34
2018-03-08T12:32:49.348Z,56.5
2018-03-08T12:33:49.353Z,56.46
2018-03-08T12:34:49.373Z,56.7
2018-03-08T12:35:49.616Z,56.45
2018-03-08T12:36:49.349Z,55.49
2018-03-08T12:37:49.349Z,56.55
2018-03-08T12:38:49.354Z,54.99
2018-03-08T12:39:49.354Z,56.02
2018-03-08T12:40:49.397Z,55.59
2018-03-08T12:41:49.392Z,55.72
2018-03-08T12:42:49.367Z,55.54
2018-03-08T12:43:49.372Z,56.12
2018-03-08T12:44:49.377Z,55.19
2018-03-08T12:45:49.408Z,54.92
2018-03-08T12:46:49.387Z,53.94
2018-03-08T12:47:49.384Z,55.51
2018-03-08T12:48:49.453Z,55.27
2018-03-08T12:49:49.392Z,53.87
2018-03-08T12:50:49.419Z,54.2
2018-03-08T12:51:49.403Z,54.22
2018-03-08T12:52:49.411Z,53.35
2018-03-08T12:53:49.416Z,53.84
2018-03-08T12:54:49.416Z,55.06
2018-03-08T12:55:49.689Z,55.1
2018-03-08T12:56:49.434Z,54.26
2018-03-08T12:57:49.435Z,53.77
2018-03-08T12:58:49.431Z,53.64